createdAt,value
2019-04-22T00:01:25.923Z,8.90
2019-04-22T00:03:58.810Z,8.70
2019-04-22T00:06:44.312Z,8.70
2019-04-22T00:09:19.519Z,8.60
2019-04-22T00:12:02.185Z,8.50
2019-04-22T00:14:14.884Z,8.50
2019-04-22T00:19:26.530Z,8.60
2019-04-22T00:21:46.200Z,8.70
2019-04-22T00:24:20.067Z,8.80
2019-04-22T00:26:49.997Z,8.80
2019-04-22T00:29:39.541Z,9.00
2019-04-22T00:34:34.113Z,9.20
2019-04-22T00:37:11.012Z,9.20
2019-04-22T00:39:42.623Z,9.10
2019-04-22T00:42:10.071Z,8.90
2019-04-22T00:47:21.160Z,8.70
2019-04-22T00:52:09.382Z,8.40
2019-04-22T00:54:49.679Z,8.20
2019-04-22T00:57:10.506Z,8.20
2019-04-22T00:59:38.151Z,8.20
2019-04-22T01:02:18.593Z,8.30
2019-04-22T01:07:11.850Z,8.30
2019-04-22T01:09:50.200Z,8.30
2019-04-22T01:12:13.637Z,8.40
2019-04-22T01:14:44.352Z,8.40
2019-04-22T01:17:11.757Z,8.40
2019-04-22T01:19:53.049Z,8.50
2019-04-22T01:22:14.912Z,8.50
2019-04-22T01:24:39.988Z,8.50
2019-04-22T01:27:06.484Z,8.60
2019-04-22T01:29:30.874Z,8.60
2019-04-22T01:31:50.905Z,8.60
2019-04-22T01:34:33.511Z,8.60
2019-04-22T01:37:07.782Z,8.50
2019-04-22T01:39:43.525Z,8.50
2019-04-22T01:42:12.070Z,8.50
2019-04-22T01:44:45.479Z,8.60
2019-04-22T01:47:21.277Z,8.60
2019-04-22T01:49:45.896Z,8.60
2019-04-22T01:52:15.836Z,8.50
2019-04-22T01:54:48.176Z,8.40
2019-04-22T01:57:11.634Z,8.40
2019-04-22T01:59:43.203Z,8.40
2019-04-22T02:02:16.268Z,8.40
2019-04-22T02:04:53.647Z,8.40
2019-04-22T02:07:18.009Z,8.30
2019-04-22T02:09:49.586Z,8.40
2019-04-22T02:14:44.240Z,8.50
2019-04-22T02:17:17.741Z,8.50
2019-04-22T02:19:53.135Z,8.60
2019-04-22T02:22:17.997Z,8.60
2019-04-22T02:24:51.185Z,8.50
2019-04-22T02:27:30.438Z,8.60
2019-04-22T02:29:47.431Z,8.50
2019-04-22T02:32:37.061Z,8.50
2019-04-22T02:37:19.253Z,8.50
2019-04-22T02:42:13.708Z,8.50
2019-04-22T02:44:58.561Z,8.50
2019-04-22T02:50:07.415Z,8.60
2019-04-22T02:55:07.209Z,8.60
2019-04-22T02:57:49.064Z,8.70
2019-04-22T03:03:11.455Z,8.80
2019-04-22T03:08:30.300Z,8.70
2019-04-22T03:13:41.783Z,8.70
2019-04-22T03:16:08.040Z,8.70
2019-04-22T03:18:44.065Z,8.80
2019-04-22T03:21:05.356Z,8.80
2019-04-22T03:23:56.357Z,8.90
2019-04-22T03:28:51.825Z,8.80
2019-04-22T03:37:03.976Z,8.80
2019-04-22T03:47:02.252Z,8.80
2019-04-22T03:49:28.885Z,8.70
2019-04-22T03:51:56.836Z,8.70
2019-04-22T03:54:29.075Z,8.70
2019-04-22T03:57:18.309Z,8.60
2019-04-22T04:07:20.171Z,8.40
2019-04-22T04:12:26.030Z,8.30
2019-04-22T04:15:13.628Z,8.20
2019-04-22T04:22:54.250Z,8.10
2019-04-22T04:32:58.409Z,8.00
2019-04-22T04:35:44.420Z,8.00
2019-04-22T04:40:49.025Z,8.00
2019-04-22T04:43:19.021Z,8.00
2019-04-22T04:48:42.271Z,8.10
2019-04-22T04:54:01.826Z,8.00
2019-04-22T05:06:44.974Z,8.10
2019-04-22T05:12:01.714Z,8.20
2019-04-22T05:16:54.595Z,8.30
2019-04-22T05:19:29.505Z,8.30
2019-04-22T05:22:13.286Z,8.40
2019-04-22T05:27:23.461Z,8.50
2019-04-22T05:29:54.212Z,8.60
2019-04-22T05:32:12.801Z,8.60
2019-04-22T05:34:44.174Z,8.70
2019-04-22T05:37:13.176Z,8.70
2019-04-22T05:39:37.054Z,8.70
2019-04-22T05:42:10.486Z,8.70
2019-04-22T05:44:44.001Z,8.70
2019-04-22T05:47:07.998Z,8.80
2019-04-22T05:49:35.098Z,8.80
2019-04-22T05:52:09.640Z,8.90
2019-04-22T05:54:38.979Z,9.00
2019-04-22T05:57:11.065Z,9.10
2019-04-22T05:59:43.391Z,9.20
2019-04-22T06:02:15.584Z,9.30
2019-04-22T06:04:37.247Z,9.40
2019-04-22T06:07:11.317Z,9.50
2019-04-22T06:09:39.822Z,9.50
2019-04-22T06:12:09.869Z,9.60
2019-04-22T06:14:31.347Z,9.70
2019-04-22T06:17:11.322Z,9.70
2019-04-22T06:19:38.287Z,9.70
2019-04-22T06:22:17.484Z,9.90
2019-04-22T06:24:32.459Z,9.90
2019-04-22T06:29:39.921Z,10.00
2019-04-22T06:32:23.899Z,10.00
2019-04-22T06:34:44.808Z,10.10
2019-04-22T06:37:14.790Z,10.20
2019-04-22T06:39:39.687Z,10.30
2019-04-22T06:42:13.426Z,10.30
2019-04-22T06:44:36.960Z,10.40
2019-04-22T06:47:40.006Z,10.40
2019-04-22T06:52:22.811Z,10.70
2019-04-22T06:54:54.754Z,10.80
2019-04-22T06:57:28.499Z,10.90
2019-04-22T06:59:59.002Z,10.90
2019-04-22T07:02:33.825Z,10.90
2019-04-22T07:07:45.040Z,11.00
2019-04-22T07:10:26.446Z,11.10
2019-04-22T07:12:47.198Z,11.30
2019-04-22T07:15:31.687Z,11.30
2019-04-22T07:17:50.884Z,11.30
2019-04-22T07:20:17.549Z,11.40
2019-04-22T07:22:39.812Z,11.40
2019-04-22T07:25:15.975Z,11.50
2019-04-22T07:27:46.072Z,11.60
2019-04-22T07:30:15.450Z,11.80
2019-04-22T07:33:09.463Z,11.90
2019-04-22T07:37:57.158Z,12.00
2019-04-22T07:40:28.702Z,12.20
2019-04-22T07:42:57.111Z,12.30
2019-04-22T07:45:29.864Z,12.20
2019-04-22T07:48:04.008Z,12.10
2019-04-22T07:50:39.297Z,12.20
2019-04-22T07:52:51.368Z,12.20
2019-04-22T07:55:29.529Z,12.30
2019-04-22T07:57:58.235Z,12.40
2019-04-22T08:00:31.250Z,12.40
2019-04-22T08:02:59.766Z,12.50
2019-04-22T08:07:59.462Z,12.50
2019-04-22T08:10:37.559Z,12.70
2019-04-22T08:12:58.046Z,12.60
2019-04-22T08:15:26.944Z,12.80
2019-04-22T08:18:01.590Z,12.90
2019-04-22T08:20:28.995Z,12.80
2019-04-22T08:23:04.658Z,13.00
2019-04-22T08:25:26.045Z,12.90
2019-04-22T08:27:56.817Z,13.10
2019-04-22T08:33:07.502Z,13.40
2019-04-22T08:35:50.264Z,13.30
2019-04-22T08:40:47.134Z,13.60
2019-04-22T08:43:26.789Z,13.70
2019-04-22T08:45:51.053Z,14.00
2019-04-22T08:48:15.077Z,14.10
2019-04-22T08:50:44.688Z,14.20
2019-04-22T08:55:56.037Z,14.30
2019-04-22T09:00:51.604Z,15.00
2019-04-22T09:03:30.549Z,15.30
2019-04-22T09:05:57.804Z,15.40
2019-04-22T09:08:20.424Z,15.40
2019-04-22T09:13:14.354Z,15.80
2019-04-22T09:15:42.402Z,16.10
2019-04-22T09:18:23.207Z,16.20
2019-04-22T09:20:48.990Z,16.70
2019-04-22T09:23:26.446Z,16.90
2019-04-22T09:25:48.597Z,17.00
2019-04-22T09:28:17.507Z,16.80
2019-04-22T09:30:47.045Z,16.50
2019-04-22T09:33:20.409Z,17.20
2019-04-22T09:35:56.994Z,17.60
2019-04-22T09:38:32.861Z,17.70
2019-04-22T09:40:47.068Z,17.90
2019-04-22T09:43:17.391Z,18.30
2019-04-22T09:45:48.025Z,18.40
2019-04-22T09:48:25.183Z,18.50
2019-04-22T09:50:48.197Z,18.50
2019-04-22T09:53:25.357Z,18.40
2019-04-22T09:55:53.191Z,19.00
2019-04-22T09:58:20.917Z,19.60
2019-04-22T10:01:03.343Z,20.00
2019-04-22T10:03:34.232Z,19.90
2019-04-22T10:06:13.270Z,19.90
2019-04-22T10:08:40.731Z,19.80
2019-04-22T10:11:10.839Z,18.90
2019-04-22T10:13:34.523Z,18.80
2019-04-22T10:16:09.050Z,19.10
2019-04-22T10:18:34.076Z,19.70
2019-04-22T10:21:02.350Z,20.30
2019-04-22T10:23:31.800Z,19.70
2019-04-22T10:26:11.108Z,20.00
2019-04-22T10:28:40.868Z,19.40
2019-04-22T10:31:01.636Z,19.80
2019-04-22T10:33:26.861Z,19.70
2019-04-22T10:35:37.302Z,19.00
2019-04-22T10:38:06.091Z,19.10
2019-04-22T10:40:36.469Z,19.70
2019-04-22T10:43:07.309Z,19.30
2019-04-22T10:45:39.701Z,19.50
2019-04-22T10:48:10.458Z,20.00
2019-04-22T10:50:42.912Z,19.90
2019-04-22T10:53:11.557Z,19.70
2019-04-22T10:55:42.172Z,19.40
2019-04-22T10:58:10.703Z,20.20
2019-04-22T11:00:39.753Z,19.90
2019-04-22T11:03:08.527Z,20.00
2019-04-22T11:05:38.000Z,19.70
2019-04-22T11:08:08.204Z,20.70
2019-04-22T11:10:52.190Z,21.00
2019-04-22T11:13:07.587Z,21.30
2019-04-22T11:15:37.522Z,21.50
2019-04-22T11:18:07.320Z,21.20
2019-04-22T11:20:35.879Z,21.20
2019-04-22T11:23:06.933Z,21.20
2019-04-22T11:25:36.141Z,21.80
2019-04-22T11:28:05.564Z,22.20
2019-04-22T11:30:34.504Z,21.00
2019-04-22T11:33:04.465Z,21.20
2019-04-22T11:35:34.045Z,21.50
2019-04-22T11:38:04.459Z,22.50
2019-04-22T11:40:38.402Z,22.30
2019-04-22T11:43:04.029Z,21.80
2019-04-22T11:45:33.241Z,21.70
2019-04-22T11:48:03.492Z,22.70
2019-04-22T11:50:33.469Z,21.10
2019-04-22T11:53:02.743Z,22.30
2019-04-22T11:55:32.913Z,22.50
2019-04-22T11:58:02.975Z,21.60
2019-04-22T12:00:32.912Z,21.40
2019-04-22T12:03:01.286Z,22.00
2019-04-22T12:05:30.052Z,21.60
2019-04-22T12:07:59.274Z,22.50
2019-04-22T12:10:36.696Z,22.20
2019-04-22T12:12:59.862Z,22.30
2019-04-22T12:15:28.945Z,21.70
2019-04-22T12:17:57.541Z,22.00
2019-04-22T12:20:27.463Z,21.30
2019-04-22T12:22:56.765Z,21.30
2019-04-22T12:25:34.823Z,22.20
2019-04-22T12:27:56.917Z,22.10
2019-04-22T12:30:25.696Z,23.00
2019-04-22T12:32:54.689Z,21.90
2019-04-22T12:35:24.310Z,22.40
2019-04-22T12:37:57.521Z,23.00
2019-04-22T12:40:33.772Z,22.60
2019-04-22T12:42:53.575Z,21.90
2019-04-22T12:45:22.505Z,22.40
2019-04-22T12:47:51.071Z,22.70
2019-04-22T12:50:27.272Z,22.10
2019-04-22T12:52:55.572Z,22.00
2019-04-22T12:55:19.728Z,23.30
2019-04-22T12:57:52.032Z,23.00
2019-04-22T13:00:20.604Z,21.00
2019-04-22T13:02:49.171Z,22.10
2019-04-22T13:05:20.137Z,20.90
2019-04-22T13:07:49.561Z,23.40
2019-04-22T13:10:18.182Z,22.70
2019-04-22T13:12:47.060Z,21.80
2019-04-22T13:15:16.297Z,21.20
2019-04-22T13:17:46.112Z,21.10
2019-04-22T13:20:18.244Z,21.00
2019-04-22T13:22:45.757Z,20.60
2019-04-22T13:25:15.535Z,21.70
2019-04-22T13:27:44.873Z,21.00
2019-04-22T13:30:16.318Z,21.00
2019-04-22T13:32:44.904Z,21.40
2019-04-22T13:35:14.906Z,21.30
2019-04-22T13:37:43.414Z,21.40
2019-04-22T13:40:12.815Z,20.60
2019-04-22T13:42:42.758Z,20.60
2019-04-22T13:45:11.618Z,20.80
2019-04-22T13:48:00.516Z,19.60
2019-04-22T13:51:40.969Z,19.60
2019-04-22T13:58:14.086Z,18.70
2019-04-22T14:00:31.399Z,18.40
2019-04-22T14:03:18.389Z,18.20
2019-04-22T14:05:53.004Z,18.30
2019-04-22T14:08:23.061Z,17.80
2019-04-22T14:10:52.491Z,17.50
2019-04-22T14:13:21.678Z,17.40
2019-04-22T14:15:51.087Z,17.70
2019-04-22T14:18:20.997Z,18.00
2019-04-22T14:20:51.021Z,17.40
2019-04-22T14:23:20.491Z,17.60
2019-04-22T14:25:50.834Z,17.70
2019-04-22T14:28:22.908Z,17.80
2019-04-22T14:30:50.607Z,17.70
2019-04-22T14:33:20.262Z,17.70
2019-04-22T14:35:49.924Z,17.20
2019-04-22T14:38:18.521Z,17.00
2019-04-22T14:40:48.220Z,17.30
2019-04-22T14:43:44.894Z,17.10
2019-04-22T14:46:17.806Z,17.20
2019-04-22T14:48:46.445Z,17.40
2019-04-22T14:51:07.429Z,17.40
2019-04-22T14:53:40.048Z,17.40
2019-04-22T14:55:48.559Z,17.30
2019-04-22T14:58:17.310Z,17.30
2019-04-22T15:00:46.110Z,17.20
2019-04-22T15:03:15.595Z,17.40
2019-04-22T15:05:44.191Z,17.50
2019-04-22T15:08:13.165Z,17.00
2019-04-22T15:10:42.310Z,16.80
2019-04-22T15:13:11.661Z,17.10
2019-04-22T15:15:47.077Z,17.10
2019-04-22T15:18:37.600Z,17.00
2019-04-22T15:21:08.950Z,17.30
2019-04-22T15:23:38.483Z,17.10
2019-04-22T15:26:08.572Z,17.10
2019-04-22T15:28:37.521Z,17.30
2019-04-22T15:31:06.311Z,17.00
2019-04-22T15:33:35.235Z,17.40
2019-04-22T15:36:05.622Z,17.40
2019-04-22T15:38:34.287Z,17.50
2019-04-22T15:41:03.128Z,17.50
2019-04-22T15:43:35.009Z,17.40
2019-04-22T15:46:03.817Z,17.40
2019-04-22T15:48:33.793Z,17.30
2019-04-22T15:51:02.863Z,17.30
2019-04-22T15:53:31.667Z,17.50
2019-04-22T15:56:00.811Z,17.60
2019-04-22T15:58:30.172Z,19.90
2019-04-22T16:01:08.893Z,22.60
2019-04-22T16:03:29.148Z,23.60
2019-04-22T16:05:57.806Z,24.70
2019-04-22T16:08:26.748Z,26.10
2019-04-22T16:10:55.874Z,26.20
2019-04-22T16:13:28.296Z,25.30
2019-04-22T16:15:54.566Z,25.10
2019-04-22T16:18:24.191Z,25.60
2019-04-22T16:20:54.205Z,25.90
2019-04-22T16:23:29.726Z,25.30
2019-04-22T16:26:15.721Z,25.30
2019-04-22T16:28:45.172Z,25.40
2019-04-22T16:31:13.768Z,25.70
2019-04-22T16:33:44.251Z,26.70
2019-04-22T16:36:13.144Z,25.80
2019-04-22T16:38:42.738Z,26.50
2019-04-22T16:41:12.692Z,26.00
2019-04-22T16:43:42.861Z,25.30
2019-04-22T16:46:11.685Z,26.20
2019-04-22T16:48:40.327Z,25.60
2019-04-22T16:51:09.910Z,24.50
2019-04-22T16:53:39.023Z,25.30
2019-04-22T16:56:08.845Z,25.80
2019-04-22T16:58:38.745Z,26.30
2019-04-22T17:01:10.247Z,26.00
2019-04-22T17:03:56.677Z,25.70
2019-04-22T17:06:27.653Z,25.70
2019-04-22T17:08:57.184Z,26.30
2019-04-22T17:11:27.525Z,26.10
2019-04-22T17:13:57.310Z,25.60
2019-04-22T17:16:26.272Z,23.50
2019-04-22T17:18:56.353Z,21.30
2019-04-22T17:21:25.866Z,19.60
2019-04-22T17:23:55.789Z,19.20
2019-04-22T17:26:24.453Z,18.60
2019-04-22T17:28:53.447Z,18.80
2019-04-22T17:31:22.799Z,18.80
2019-04-22T17:33:53.009Z,18.70
2019-04-22T17:36:22.387Z,18.40
2019-04-22T17:38:58.423Z,17.90
2019-04-22T17:41:34.568Z,17.80
2019-04-22T17:44:21.741Z,17.90
2019-04-22T17:46:45.891Z,17.90
2019-04-22T17:49:35.529Z,17.60
2019-04-22T17:52:19.835Z,17.40
2019-04-22T17:54:41.838Z,17.40
2019-04-22T17:57:13.960Z,17.50
2019-04-22T17:59:43.058Z,17.40
2019-04-22T18:02:08.591Z,17.40
2019-04-22T18:04:23.238Z,17.20
2019-04-22T18:07:18.554Z,17.10
2019-04-22T18:10:10.722Z,16.90
2019-04-22T18:15:05.101Z,16.90
2019-04-22T18:17:38.632Z,16.80
2019-04-22T18:19:58.242Z,16.70
2019-04-22T18:22:21.956Z,16.60
2019-04-22T18:24:54.155Z,16.50
2019-04-22T18:29:59.047Z,16.30
2019-04-22T18:32:25.670Z,16.30
2019-04-22T18:34:55.483Z,16.30
2019-04-22T18:37:26.751Z,16.20
2019-04-22T18:40:03.202Z,16.10
2019-04-22T18:42:26.676Z,16.00
2019-04-22T18:45:20.295Z,16.00
2019-04-22T18:47:29.514Z,15.90
2019-04-22T18:50:00.702Z,15.80
2019-04-22T18:52:48.040Z,15.70
2019-04-22T18:55:25.172Z,15.60
2019-04-22T18:58:02.227Z,15.70
2019-04-22T19:00:23.327Z,15.70
2019-04-22T19:02:58.986Z,15.60
2019-04-22T19:05:34.669Z,15.60
2019-04-22T19:08:18.178Z,15.60
2019-04-22T19:10:51.757Z,15.60
2019-04-22T19:13:47.341Z,15.50
2019-04-22T19:18:38.012Z,15.40
2019-04-22T19:21:07.900Z,15.30
2019-04-22T19:23:31.930Z,15.20
2019-04-22T19:25:58.602Z,15.10
2019-04-22T19:28:35.787Z,15.10
2019-04-22T19:31:09.618Z,15.10
2019-04-22T19:33:38.218Z,15.00
2019-04-22T19:36:08.128Z,15.00
2019-04-22T19:38:21.927Z,15.00
2019-04-22T19:41:07.675Z,14.90
2019-04-22T19:43:32.671Z,14.90
2019-04-22T19:46:02.102Z,14.80
2019-04-22T19:48:40.929Z,14.90
2019-04-22T19:51:11.460Z,14.90
2019-04-22T19:53:35.507Z,14.70
2019-04-22T19:55:59.902Z,14.60
2019-04-22T19:58:34.875Z,14.60
2019-04-22T20:01:16.153Z,14.60
2019-04-22T20:04:08.729Z,14.50
2019-04-22T20:06:38.103Z,14.50
2019-04-22T20:09:17.754Z,14.50
2019-04-22T20:11:41.750Z,14.40
2019-04-22T20:14:12.594Z,14.40
2019-04-22T20:16:46.253Z,14.30
2019-04-22T20:19:21.942Z,14.20
2019-04-22T20:21:40.570Z,14.10
2019-04-22T20:24:01.076Z,14.10
2019-04-22T20:26:45.480Z,14.30
2019-04-22T20:29:19.230Z,14.20
2019-04-22T20:31:48.023Z,14.00
2019-04-22T20:34:16.179Z,13.90
2019-04-22T20:37:35.384Z,13.90
2019-04-22T20:42:14.816Z,13.90
2019-04-22T20:44:37.260Z,13.90
2019-04-22T20:46:57.369Z,13.80
2019-04-22T20:49:31.100Z,13.50
2019-04-22T20:52:22.187Z,13.50
2019-04-22T20:54:28.592Z,13.60
2019-04-22T20:56:56.338Z,13.70
2019-04-22T20:59:27.158Z,13.70
2019-04-22T21:01:58.308Z,13.50
2019-04-22T21:04:19.627Z,13.50
2019-04-22T21:06:55.997Z,13.40
2019-04-22T21:09:28.830Z,13.40
2019-04-22T21:11:56.704Z,13.20
2019-04-22T21:14:23.219Z,13.00
2019-04-22T21:17:02.167Z,13.00
2019-04-22T21:19:40.377Z,12.90
2019-04-22T21:22:05.087Z,12.80
2019-04-22T21:24:32.927Z,12.80
2019-04-22T21:27:08.459Z,12.60
2019-04-22T21:29:26.568Z,12.60
2019-04-22T21:32:01.094Z,12.50
2019-04-22T21:34:32.015Z,12.50
2019-04-22T21:37:12.092Z,12.50
2019-04-22T21:39:33.417Z,12.50
2019-04-22T21:41:58.869Z,12.30
2019-04-22T21:44:31.837Z,12.20
2019-04-22T21:47:10.844Z,12.20
2019-04-22T21:49:35.891Z,11.90
2019-04-22T21:52:08.012Z,12.10
2019-04-22T21:54:36.613Z,12.40
2019-04-22T21:59:37.099Z,12.40
2019-04-22T22:02:09.770Z,12.40
2019-04-22T22:04:36.460Z,12.30
2019-04-22T22:06:55.653Z,12.20
2019-04-22T22:09:39.019Z,12.30
2019-04-22T22:12:05.243Z,12.20
2019-04-22T22:14:40.072Z,12.10
2019-04-22T22:17:01.275Z,12.00
2019-04-22T22:19:40.538Z,11.90
2019-04-22T22:22:25.410Z,11.90
2019-04-22T22:24:41.383Z,11.90
2019-04-22T22:27:12.612Z,11.80
2019-04-22T22:29:50.370Z,11.80
2019-04-22T22:32:11.191Z,11.80
2019-04-22T22:34:42.600Z,11.80
2019-04-22T22:37:01.572Z,11.70
2019-04-22T22:39:31.053Z,11.60
2019-04-22T22:41:48.063Z,11.60
2019-04-22T22:44:25.115Z,11.60
2019-04-22T22:47:05.008Z,11.60
2019-04-22T22:49:45.902Z,11.60
2019-04-22T22:52:31.093Z,11.50
2019-04-22T22:54:42.052Z,11.50
2019-04-22T22:57:19.527Z,11.50
2019-04-22T22:59:38.878Z,11.50
2019-04-22T23:02:06.168Z,11.40
2019-04-22T23:04:39.561Z,11.40
2019-04-22T23:07:13.134Z,11.40
2019-04-22T23:09:41.853Z,11.30
2019-04-22T23:12:14.365Z,11.30
2019-04-22T23:14:39.687Z,11.40
2019-04-22T23:16:55.035Z,11.30
2019-04-22T23:19:17.895Z,11.30
2019-04-22T23:21:51.897Z,11.20
2019-04-22T23:24:50.098Z,11.20
2019-04-22T23:27:20.527Z,11.20
2019-04-22T23:29:45.937Z,11.10
2019-04-22T23:32:20.128Z,11.10
2019-04-22T23:34:56.723Z,11.10
2019-04-22T23:37:28.964Z,11.10
2019-04-22T23:40:09.967Z,11.10
2019-04-22T23:42:36.499Z,11.00
2019-04-22T23:45:09.566Z,11.10
2019-04-22T23:47:31.211Z,11.00
2019-04-22T23:50:09.375Z,11.00
2019-04-22T23:52:43.199Z,11.00
2019-04-22T23:55:13.277Z,11.00
2019-04-22T23:57:42.420Z,11.00
